sensor_id;sensor_type;location;lat;lon;timestamp;P1;durP1;ratioP1;P2;durP2;ratioP2
59147;SDS011;44930;52.878;6.168;2022-08-27T00:00:03;7.35;;;4.15;;
59147;SDS011;44930;52.878;6.168;2022-08-27T00:02:32;9.93;;;5.07;;
59147;SDS011;44930;52.878;6.168;2022-08-27T00:05:00;9.55;;;4.30;;
59147;SDS011;44930;52.878;6.168;2022-08-27T00:07:26;8.45;;;4.05;;
59147;SDS011;44930;52.878;6.168;2022-08-27T00:09:52;6.93;;;3.33;;
59147;SDS011;44930;52.878;6.168;2022-08-27T00:12:18;6.13;;;3.63;;
59147;SDS011;44930;52.878;6.168;2022-08-27T00:14:43;15.05;;;4.78;;
59147;SDS011;44930;52.878;6.168;2022-08-27T00:17:09;8.43;;;4.43;;
59147;SDS011;44930;52.878;6.168;2022-08-27T00:19:35;9.15;;;4.72;;
59147;SDS011;44930;52.878;6.168;2022-08-27T00:22:02;9.50;;;4.10;;
59147;SDS011;44930;52.878;6.168;2022-08-27T00:24:29;6.55;;;3.90;;
59147;SDS011;44930;52.878;6.168;2022-08-27T00:26:55;10.80;;;4.10;;
59147;SDS011;44930;52.878;6.168;2022-08-27T00:29:21;9.73;;;4.38;;
59147;SDS011;44930;52.878;6.168;2022-08-27T00:31:46;7.13;;;4.28;;
59147;SDS011;44930;52.878;6.168;2022-08-27T00:34:12;8.85;;;4.55;;
59147;SDS011;44930;52.878;6.168;2022-08-27T00:36:38;5.65;;;3.92;;
59147;SDS011;44930;52.878;6.168;2022-08-27T00:39:05;7.05;;;4.43;;
59147;SDS011;44930;52.878;6.168;2022-08-27T00:41:30;7.13;;;4.60;;
59147;SDS011;44930;52.878;6.168;2022-08-27T00:43:58;7.72;;;4.18;;
59147;SDS011;44930;52.878;6.168;2022-08-27T00:46:27;6.22;;;4.07;;
59147;SDS011;44930;52.878;6.168;2022-08-27T00:49:29;6.07;;;3.42;;
59147;SDS011;44930;52.878;6.168;2022-08-27T00:52:15;8.48;;;4.07;;
59147;SDS011;44930;52.878;6.168;2022-08-27T00:54:53;5.75;;;4.28;;
59147;SDS011;44930;52.878;6.168;2022-08-27T00:57:24;4.53;;;3.20;;
59147;SDS011;44930;52.878;6.168;2022-08-27T00:59:51;8.35;;;4.60;;
59147;SDS011;44930;52.878;6.168;2022-08-27T01:02:17;5.78;;;4.10;;
59147;SDS011;44930;52.878;6.168;2022-08-27T01:04:43;6.32;;;3.80;;
59147;SDS011;44930;52.878;6.168;2022-08-27T01:07:12;9.05;;;3.97;;
59147;SDS011;44930;52.878;6.168;2022-08-27T01:09:38;8.60;;;5.25;;
59147;SDS011;44930;52.878;6.168;2022-08-27T01:12:06;7.15;;;4.25;;
59147;SDS011;44930;52.878;6.168;2022-08-27T01:14:33;5.93;;;4.00;;
59147;SDS011;44930;52.878;6.168;2022-08-27T01:16:59;6.35;;;4.20;;
59147;SDS011;44930;52.878;6.168;2022-08-27T01:19:38;6.80;;;3.58;;
59147;SDS011;44930;52.878;6.168;2022-08-27T01:22:11;4.30;;;2.95;;
59147;SDS011;44930;52.878;6.168;2022-08-27T01:24:40;4.93;;;3.20;;
59147;SDS011;44930;52.878;6.168;2022-08-27T01:27:11;7.97;;;3.03;;
59147;SDS011;44930;52.878;6.168;2022-08-27T01:29:40;4.63;;;2.90;;
59147;SDS011;44930;52.878;6.168;2022-08-27T01:32:08;6.80;;;3.00;;
59147;SDS011;44930;52.878;6.168;2022-08-27T01:34:37;4.85;;;2.33;;
59147;SDS011;44930;52.878;6.168;2022-08-27T01:37:03;4.88;;;2.67;;
59147;SDS011;44930;52.878;6.168;2022-08-27T01:39:31;5.38;;;2.85;;
59147;SDS011;44930;52.878;6.168;2022-08-27T01:42:02;5.25;;;3.25;;
59147;SDS011;44930;52.878;6.168;2022-08-27T01:44:43;4.10;;;2.95;;
59147;SDS011;44930;52.878;6.168;2022-08-27T01:47:18;5.45;;;4.30;;
59147;SDS011;44930;52.878;6.168;2022-08-27T01:49:45;4.78;;;3.50;;
59147;SDS011;44930;52.878;6.168;2022-08-27T01:52:12;6.75;;;4.32;;
59147;SDS011;44930;52.878;6.168;2022-08-27T01:54:39;8.13;;;4.75;;
59147;SDS011;44930;52.878;6.168;2022-08-27T01:57:04;7.53;;;5.03;;
59147;SDS011;44930;52.878;6.168;2022-08-27T01:59:31;7.30;;;4.63;;
59147;SDS011;44930;52.878;6.168;2022-08-27T02:01:57;10.07;;;5.10;;
59147;SDS011;44930;52.878;6.168;2022-08-27T02:04:24;10.23;;;5.45;;
59147;SDS011;44930;52.878;6.168;2022-08-27T02:06:50;7.97;;;5.32;;
59147;SDS011;44930;52.878;6.168;2022-08-27T02:09:16;10.73;;;5.60;;
59147;SDS011;44930;52.878;6.168;2022-08-27T02:11:42;9.25;;;6.05;;
59147;SDS011;44930;52.878;6.168;2022-08-27T02:14:07;9.75;;;5.22;;
59147;SDS011;44930;52.878;6.168;2022-08-27T02:16:33;11.50;;;6.05;;
59147;SDS011;44930;52.878;6.168;2022-08-27T02:19:00;7.03;;;5.22;;
59147;SDS011;44930;52.878;6.168;2022-08-27T02:21:26;8.00;;;4.85;;
59147;SDS011;44930;52.878;6.168;2022-08-27T02:23:52;14.30;;;6.22;;
59147;SDS011;44930;52.878;6.168;2022-08-27T02:26:19;7.97;;;4.95;;
59147;SDS011;44930;52.878;6.168;2022-08-27T02:28:46;6.40;;;4.75;;
59147;SDS011;44930;52.878;6.168;2022-08-27T02:31:11;8.07;;;4.13;;
59147;SDS011;44930;52.878;6.168;2022-08-27T02:33:38;7.45;;;4.30;;
59147;SDS011;44930;52.878;6.168;2022-08-27T02:36:04;12.30;;;5.55;;
59147;SDS011;44930;52.878;6.168;2022-08-27T02:38:30;6.82;;;5.13;;
59147;SDS011;44930;52.878;6.168;2022-08-27T02:40:56;10.00;;;5.38;;
59147;SDS011;44930;52.878;6.168;2022-08-27T02:43:21;6.50;;;4.80;;
59147;SDS011;44930;52.878;6.168;2022-08-27T02:45:47;7.05;;;4.13;;
59147;SDS011;44930;52.878;6.168;2022-08-27T02:48:13;9.77;;;4.75;;
59147;SDS011;44930;52.878;6.168;2022-08-27T02:50:39;9.70;;;5.85;;
59147;SDS011;44930;52.878;6.168;2022-08-27T02:53:05;6.10;;;4.20;;
59147;SDS011;44930;52.878;6.168;2022-08-27T02:55:30;5.85;;;3.40;;
59147;SDS011;44930;52.878;6.168;2022-08-27T02:57:57;8.27;;;4.38;;
59147;SDS011;44930;52.878;6.168;2022-08-27T03:00:23;4.82;;;3.53;;
59147;SDS011;44930;52.878;6.168;2022-08-27T03:02:50;6.72;;;3.60;;
59147;SDS011;44930;52.878;6.168;2022-08-27T03:05:16;6.18;;;3.28;;
59147;SDS011;44930;52.878;6.168;2022-08-27T03:07:42;3.97;;;2.42;;
59147;SDS011;44930;52.878;6.168;2022-08-27T03:10:09;4.28;;;3.05;;
59147;SDS011;44930;52.878;6.168;2022-08-27T03:12:37;5.70;;;3.63;;
59147;SDS011;44930;52.878;6.168;2022-08-27T03:15:05;5.63;;;3.70;;
59147;SDS011;44930;52.878;6.168;2022-08-27T03:17:32;8.07;;;4.07;;
59147;SDS011;44930;52.878;6.168;2022-08-27T03:20:17;6.18;;;3.95;;
59147;SDS011;44930;52.878;6.168;2022-08-27T03:22:43;6.97;;;4.32;;
59147;SDS011;44930;52.878;6.168;2022-08-27T03:25:09;7.88;;;3.70;;
59147;SDS011;44930;52.878;6.168;2022-08-27T03:27:35;4.97;;;3.85;;
59147;SDS011;44930;52.878;6.168;2022-08-27T03:30:05;5.75;;;4.00;;
59147;SDS011;44930;52.878;6.168;2022-08-27T03:32:37;7.70;;;4.45;;
59147;SDS011;44930;52.878;6.168;2022-08-27T03:35:03;5.97;;;4.15;;
59147;SDS011;44930;52.878;6.168;2022-08-27T03:37:29;5.40;;;3.60;;
59147;SDS011;44930;52.878;6.168;2022-08-27T03:39:54;3.17;;;2.40;;
59147;SDS011;44930;52.878;6.168;2022-08-27T03:42:20;5.82;;;3.40;;
59147;SDS011;44930;52.878;6.168;2022-08-27T03:44:46;3.15;;;2.60;;
59147;SDS011;44930;52.878;6.168;2022-08-27T03:47:12;4.05;;;3.00;;
59147;SDS011;44930;52.878;6.168;2022-08-27T03:49:38;4.97;;;2.70;;
59147;SDS011;44930;52.878;6.168;2022-08-27T03:52:04;3.70;;;2.83;;
59147;SDS011;44930;52.878;6.168;2022-08-27T03:54:33;4.93;;;2.63;;
59147;SDS011;44930;52.878;6.168;2022-08-27T03:57:00;3.50;;;2.85;;
59147;SDS011;44930;52.878;6.168;2022-08-27T03:59:25;3.72;;;3.03;;
59147;SDS011;44930;52.878;6.168;2022-08-27T04:01:51;4.80;;;3.05;;
59147;SDS011;44930;52.878;6.168;2022-08-27T04:04:17;4.95;;;3.50;;
59147;SDS011;44930;52.878;6.168;2022-08-27T04:06:43;4.82;;;3.20;;
59147;SDS011;44930;52.878;6.168;2022-08-27T04:09:08;4.60;;;3.55;;
59147;SDS011;44930;52.878;6.168;2022-08-27T04:11:34;6.18;;;3.72;;
59147;SDS011;44930;52.878;6.168;2022-08-27T04:14:04;4.05;;;3.20;;
59147;SDS011;44930;52.878;6.168;2022-08-27T04:16:31;4.63;;;3.40;;
59147;SDS011;44930;52.878;6.168;2022-08-27T04:18:58;3.80;;;2.65;;
59147;SDS011;44930;52.878;6.168;2022-08-27T04:21:24;4.25;;;3.28;;
59147;SDS011;44930;52.878;6.168;2022-08-27T04:23:50;5.78;;;3.15;;
59147;SDS011;44930;52.878;6.168;2022-08-27T04:26:16;4.80;;;3.78;;
59147;SDS011;44930;52.878;6.168;2022-08-27T04:28:41;4.25;;;3.67;;
59147;SDS011;44930;52.878;6.168;2022-08-27T04:31:07;4.53;;;3.50;;
59147;SDS011;44930;52.878;6.168;2022-08-27T04:33:33;7.78;;;4.47;;
59147;SDS011;44930;52.878;6.168;2022-08-27T04:36:00;6.43;;;4.60;;
59147;SDS011;44930;52.878;6.168;2022-08-27T04:38:27;5.80;;;4.93;;
59147;SDS011;44930;52.878;6.168;2022-08-27T04:40:52;7.00;;;4.68;;
59147;SDS011;44930;52.878;6.168;2022-08-27T04:43:37;6.05;;;3.20;;
59147;SDS011;44930;52.878;6.168;2022-08-27T04:46:03;5.95;;;3.97;;
59147;SDS011;44930;52.878;6.168;2022-08-27T04:48:29;6.85;;;4.32;;
59147;SDS011;44930;52.878;6.168;2022-08-27T04:50:54;6.93;;;4.50;;
59147;SDS011;44930;52.878;6.168;2022-08-27T04:53:20;7.25;;;4.15;;
59147;SDS011;44930;52.878;6.168;2022-08-27T04:55:47;6.75;;;4.10;;
59147;SDS011;44930;52.878;6.168;2022-08-27T04:58:14;7.18;;;4.03;;
59147;SDS011;44930;52.878;6.168;2022-08-27T05:00:45;10.18;;;5.78;;
59147;SDS011;44930;52.878;6.168;2022-08-27T05:03:15;7.13;;;4.50;;
59147;SDS011;44930;52.878;6.168;2022-08-27T05:05:43;6.45;;;4.65;;
59147;SDS011;44930;52.878;6.168;2022-08-27T05:08:11;8.15;;;4.63;;
59147;SDS011;44930;52.878;6.168;2022-08-27T05:10:47;4.90;;;4.15;;
59147;SDS011;44930;52.878;6.168;2022-08-27T05:13:14;7.30;;;4.68;;
59147;SDS011;44930;52.878;6.168;2022-08-27T05:15:42;6.72;;;4.97;;
59147;SDS011;44930;52.878;6.168;2022-08-27T05:18:08;7.28;;;4.85;;
59147;SDS011;44930;52.878;6.168;2022-08-27T05:20:41;5.70;;;4.45;;
59147;SDS011;44930;52.878;6.168;2022-08-27T05:23:12;12.35;;;5.25;;
59147;SDS011;44930;52.878;6.168;2022-08-27T05:25:39;9.43;;;5.03;;
59147;SDS011;44930;52.878;6.168;2022-08-27T05:28:07;11.02;;;4.70;;
59147;SDS011;44930;52.878;6.168;2022-08-27T05:30:34;14.15;;;5.75;;
59147;SDS011;44930;52.878;6.168;2022-08-27T05:33:05;9.48;;;5.25;;
59147;SDS011;44930;52.878;6.168;2022-08-27T05:35:31;6.40;;;4.93;;
59147;SDS011;44930;52.878;6.168;2022-08-27T05:38:03;8.82;;;5.40;;
59147;SDS011;44930;52.878;6.168;2022-08-27T05:40:29;13.80;;;5.82;;
59147;SDS011;44930;52.878;6.168;2022-08-27T05:42:54;16.30;;;5.50;;
59147;SDS011;44930;52.878;6.168;2022-08-27T05:45:20;9.63;;;5.53;;
59147;SDS011;44930;52.878;6.168;2022-08-27T05:47:46;9.00;;;5.40;;
59147;SDS011;44930;52.878;6.168;2022-08-27T05:50:12;8.60;;;5.50;;
59147;SDS011;44930;52.878;6.168;2022-08-27T05:52:37;8.85;;;5.60;;
59147;SDS011;44930;52.878;6.168;2022-08-27T05:55:03;8.13;;;5.78;;
59147;SDS011;44930;52.878;6.168;2022-08-27T05:57:29;13.15;;;6.68;;
59147;SDS011;44930;52.878;6.168;2022-08-27T05:59:55;7.63;;;5.80;;
59147;SDS011;44930;52.878;6.168;2022-08-27T06:02:39;8.65;;;6.55;;
59147;SDS011;44930;52.878;6.168;2022-08-27T06:05:05;7.68;;;5.90;;
59147;SDS011;44930;52.878;6.168;2022-08-27T06:07:31;9.50;;;5.40;;
59147;SDS011;44930;52.878;6.168;2022-08-27T06:09:58;11.05;;;5.32;;
59147;SDS011;44930;52.878;6.168;2022-08-27T06:12:24;7.25;;;5.57;;
59147;SDS011;44930;52.878;6.168;2022-08-27T06:14:50;11.20;;;4.97;;
59147;SDS011;44930;52.878;6.168;2022-08-27T06:17:15;8.82;;;5.30;;
59147;SDS011;44930;52.878;6.168;2022-08-27T06:19:41;7.57;;;4.32;;
59147;SDS011;44930;52.878;6.168;2022-08-27T06:22:07;9.40;;;5.03;;
59147;SDS011;44930;52.878;6.168;2022-08-27T06:24:33;8.43;;;4.75;;
59147;SDS011;44930;52.878;6.168;2022-08-27T06:27:00;6.60;;;4.47;;
59147;SDS011;44930;52.878;6.168;2022-08-27T06:29:25;8.15;;;4.35;;
59147;SDS011;44930;52.878;6.168;2022-08-27T06:31:51;7.07;;;4.32;;
59147;SDS011;44930;52.878;6.168;2022-08-27T06:34:18;7.07;;;4.05;;
59147;SDS011;44930;52.878;6.168;2022-08-27T06:36:44;10.90;;;4.10;;
59147;SDS011;44930;52.878;6.168;2022-08-27T06:39:10;8.32;;;3.97;;
59147;SDS011;44930;52.878;6.168;2022-08-27T06:41:38;8.55;;;3.63;;
59147;SDS011;44930;52.878;6.168;2022-08-27T06:44:05;8.98;;;4.30;;
59147;SDS011;44930;52.878;6.168;2022-08-27T06:46:30;7.72;;;3.83;;
59147;SDS011;44930;52.878;6.168;2022-08-27T06:48:57;11.02;;;4.35;;
59147;SDS011;44930;52.878;6.168;2022-08-27T06:51:26;8.32;;;3.25;;
59147;SDS011;44930;52.878;6.168;2022-08-27T06:53:54;5.75;;;2.83;;
59147;SDS011;44930;52.878;6.168;2022-08-27T06:56:21;6.22;;;3.45;;
59147;SDS011;44930;52.878;6.168;2022-08-27T06:58:50;11.07;;;3.85;;
59147;SDS011;44930;52.878;6.168;2022-08-27T07:01:19;9.95;;;3.78;;
59147;SDS011;44930;52.878;6.168;2022-08-27T07:03:46;11.07;;;4.05;;
59147;SDS011;44930;52.878;6.168;2022-08-27T07:06:13;6.57;;;3.30;;
59147;SDS011;44930;52.878;6.168;2022-08-27T07:08:40;5.82;;;3.28;;
59147;SDS011;44930;52.878;6.168;2022-08-27T07:11:07;7.85;;;3.35;;
59147;SDS011;44930;52.878;6.168;2022-08-27T07:13:35;5.40;;;2.88;;
59147;SDS011;44930;52.878;6.168;2022-08-27T07:16:08;4.22;;;2.67;;
59147;SDS011;44930;52.878;6.168;2022-08-27T07:18:37;4.50;;;2.40;;
59147;SDS011;44930;52.878;6.168;2022-08-27T07:21:04;7.40;;;2.70;;
59147;SDS011;44930;52.878;6.168;2022-08-27T07:23:31;8.27;;;2.90;;
59147;SDS011;44930;52.878;6.168;2022-08-27T07:25:58;8.07;;;2.90;;
59147;SDS011;44930;52.878;6.168;2022-08-27T07:28:24;9.05;;;2.83;;
59147;SDS011;44930;52.878;6.168;2022-08-27T07:30:50;5.15;;;2.90;;
59147;SDS011;44930;52.878;6.168;2022-08-27T07:33:16;8.27;;;3.63;;
59147;SDS011;44930;52.878;6.168;2022-08-27T07:35:42;6.63;;;2.25;;
59147;SDS011;44930;52.878;6.168;2022-08-27T07:38:09;6.68;;;2.05;;
59147;SDS011;44930;52.878;6.168;2022-08-27T07:40:36;7.38;;;2.08;;
59147;SDS011;44930;52.878;6.168;2022-08-27T07:43:04;7.57;;;2.50;;
59147;SDS011;44930;52.878;6.168;2022-08-27T07:45:49;6.82;;;2.10;;
59147;SDS011;44930;52.878;6.168;2022-08-27T07:48:19;5.10;;;1.90;;
59147;SDS011;44930;52.878;6.168;2022-08-27T07:50:49;8.23;;;2.08;;
59147;SDS011;44930;52.878;6.168;2022-08-27T07:53:15;7.15;;;2.13;;
59147;SDS011;44930;52.878;6.168;2022-08-27T07:55:41;9.90;;;2.20;;
59147;SDS011;44930;52.878;6.168;2022-08-27T07:58:07;5.50;;;2.13;;
59147;SDS011;44930;52.878;6.168;2022-08-27T08:00:33;7.15;;;1.90;;
59147;SDS011;44930;52.878;6.168;2022-08-27T08:02:59;17.17;;;4.65;;
59147;SDS011;44930;52.878;6.168;2022-08-27T08:05:25;6.72;;;1.83;;
59147;SDS011;44930;52.878;6.168;2022-08-27T08:07:51;7.13;;;1.90;;
59147;SDS011;44930;52.878;6.168;2022-08-27T08:10:17;12.82;;;2.67;;
59147;SDS011;44930;52.878;6.168;2022-08-27T08:12:44;6.38;;;2.22;;
59147;SDS011;44930;52.878;6.168;2022-08-27T08:15:10;6.78;;;1.75;;
59147;SDS011;44930;52.878;6.168;2022-08-27T08:17:36;6.97;;;2.25;;
59147;SDS011;44930;52.878;6.168;2022-08-27T08:20:04;7.00;;;1.70;;
59147;SDS011;44930;52.878;6.168;2022-08-27T08:22:30;8.05;;;2.10;;
59147;SDS011;44930;52.878;6.168;2022-08-27T08:24:56;8.77;;;1.80;;
59147;SDS011;44930;52.878;6.168;2022-08-27T08:27:22;10.02;;;3.35;;
59147;SDS011;44930;52.878;6.168;2022-08-27T08:29:48;10.23;;;2.97;;
59147;SDS011;44930;52.878;6.168;2022-08-27T08:32:14;7.07;;;2.00;;
59147;SDS011;44930;52.878;6.168;2022-08-27T08:34:41;7.88;;;1.73;;
59147;SDS011;44930;52.878;6.168;2022-08-27T08:37:07;6.22;;;1.85;;
59147;SDS011;44930;52.878;6.168;2022-08-27T08:39:33;6.03;;;1.50;;
59147;SDS011;44930;52.878;6.168;2022-08-27T08:42:01;5.68;;;2.00;;
59147;SDS011;44930;52.878;6.168;2022-08-27T08:44:33;7.03;;;2.17;;
59147;SDS011;44930;52.878;6.168;2022-08-27T08:47:14;9.77;;;1.80;;
59147;SDS011;44930;52.878;6.168;2022-08-27T08:49:55;7.30;;;2.38;;
59147;SDS011;44930;52.878;6.168;2022-08-27T08:55:06;7.53;;;1.90;;
59147;SDS011;44930;52.878;6.168;2022-08-27T08:58:09;3.33;;;1.15;;
59147;SDS011;44930;52.878;6.168;2022-08-27T09:00:55;9.13;;;1.30;;
59147;SDS011;44930;52.878;6.168;2022-08-27T09:03:23;6.63;;;1.70;;
59147;SDS011;44930;52.878;6.168;2022-08-27T09:05:53;7.53;;;1.40;;
59147;SDS011;44930;52.878;6.168;2022-08-27T09:08:35;7.60;;;1.55;;
59147;SDS011;44930;52.878;6.168;2022-08-27T09:16:31;4.45;;;1.20;;
59147;SDS011;44930;52.878;6.168;2022-08-27T09:18:57;5.97;;;1.40;;
59147;SDS011;44930;52.878;6.168;2022-08-27T09:23:55;11.80;;;1.63;;
59147;SDS011;44930;52.878;6.168;2022-08-27T09:26:33;6.90;;;1.35;;
59147;SDS011;44930;52.878;6.168;2022-08-27T09:29:03;7.45;;;1.48;;
59147;SDS011;44930;52.878;6.168;2022-08-27T09:31:40;6.93;;;1.40;;
59147;SDS011;44930;52.878;6.168;2022-08-27T09:34:11;7.05;;;1.30;;
59147;SDS011;44930;52.878;6.168;2022-08-27T09:42:22;5.88;;;1.48;;
59147;SDS011;44930;52.878;6.168;2022-08-27T09:45:11;5.03;;;1.30;;
59147;SDS011;44930;52.878;6.168;2022-08-27T09:47:43;3.92;;;1.20;;
59147;SDS011;44930;52.878;6.168;2022-08-27T09:50:10;12.52;;;1.63;;
59147;SDS011;44930;52.878;6.168;2022-08-27T09:52:58;7.15;;;1.25;;
59147;SDS011;44930;52.878;6.168;2022-08-27T09:55:24;7.97;;;1.77;;
59147;SDS011;44930;52.878;6.168;2022-08-27T09:58:13;4.35;;;1.15;;
59147;SDS011;44930;52.878;6.168;2022-08-27T10:00:57;6.53;;;1.20;;
59147;SDS011;44930;52.878;6.168;2022-08-27T10:03:28;8.02;;;1.55;;
59147;SDS011;44930;52.878;6.168;2022-08-27T10:05:54;5.38;;;0.98;;
59147;SDS011;44930;52.878;6.168;2022-08-27T10:08:24;7.35;;;1.40;;
59147;SDS011;44930;52.878;6.168;2022-08-27T10:10:59;3.90;;;1.20;;
59147;SDS011;44930;52.878;6.168;2022-08-27T10:19:27;8.30;;;1.60;;
59147;SDS011;44930;52.878;6.168;2022-08-27T10:21:59;6.65;;;1.45;;
59147;SDS011;44930;52.878;6.168;2022-08-27T10:40:26;9.70;;;1.70;;
59147;SDS011;44930;52.878;6.168;2022-08-27T10:45:36;7.63;;;1.80;;
59147;SDS011;44930;52.878;6.168;2022-08-27T10:48:50;5.57;;;1.33;;
59147;SDS011;44930;52.878;6.168;2022-08-27T10:51:28;6.10;;;1.20;;
59147;SDS011;44930;52.878;6.168;2022-08-27T10:54:15;7.82;;;1.83;;
59147;SDS011;44930;52.878;6.168;2022-08-27T10:57:02;7.38;;;1.42;;
59147;SDS011;44930;52.878;6.168;2022-08-27T10:59:45;11.18;;;1.92;;
59147;SDS011;44930;52.878;6.168;2022-08-27T11:07:42;6.63;;;1.30;;
59147;SDS011;44930;52.878;6.168;2022-08-27T11:10:15;6.68;;;1.83;;
59147;SDS011;44930;52.878;6.168;2022-08-27T11:12:46;8.23;;;1.67;;
59147;SDS011;44930;52.878;6.168;2022-08-27T11:15:26;8.18;;;1.42;;
59147;SDS011;44930;52.878;6.168;2022-08-27T11:18:10;6.72;;;1.35;;
59147;SDS011;44930;52.878;6.168;2022-08-27T11:23:24;5.97;;;2.45;;
59147;SDS011;44930;52.878;6.168;2022-08-27T11:26:01;8.07;;;1.52;;
59147;SDS011;44930;52.878;6.168;2022-08-27T11:28:34;7.70;;;1.35;;
59147;SDS011;44930;52.878;6.168;2022-08-27T11:31:10;5.55;;;1.13;;
59147;SDS011;44930;52.878;6.168;2022-08-27T11:42:35;7.82;;;1.10;;
59147;SDS011;44930;52.878;6.168;2022-08-27T11:45:14;9.57;;;1.35;;
59147;SDS011;44930;52.878;6.168;2022-08-27T11:48:00;7.13;;;0.98;;
59147;SDS011;44930;52.878;6.168;2022-08-27T11:50:28;8.65;;;2.17;;
59147;SDS011;44930;52.878;6.168;2022-08-27T11:53:04;5.38;;;0.75;;
59147;SDS011;44930;52.878;6.168;2022-08-27T11:55:32;7.68;;;1.30;;
59147;SDS011;44930;52.878;6.168;2022-08-27T11:58:04;6.50;;;1.98;;
59147;SDS011;44930;52.878;6.168;2022-08-27T12:00:33;11.10;;;1.42;;
59147;SDS011;44930;52.878;6.168;2022-08-27T12:03:06;10.73;;;1.30;;
59147;SDS011;44930;52.878;6.168;2022-08-27T12:08:31;9.35;;;1.17;;
59147;SDS011;44930;52.878;6.168;2022-08-27T12:11:04;7.57;;;1.95;;
59147;SDS011;44930;52.878;6.168;2022-08-27T12:19:00;4.93;;;1.35;;
59147;SDS011;44930;52.878;6.168;2022-08-27T12:21:46;8.40;;;1.75;;
59147;SDS011;44930;52.878;6.168;2022-08-27T12:29:50;7.07;;;0.98;;
59147;SDS011;44930;52.878;6.168;2022-08-27T12:32:21;11.52;;;1.60;;
59147;SDS011;44930;52.878;6.168;2022-08-27T12:37:36;6.30;;;1.58;;
59147;SDS011;44930;52.878;6.168;2022-08-27T12:40:26;4.13;;;0.88;;
59147;SDS011;44930;52.878;6.168;2022-08-27T12:43:07;7.05;;;1.70;;
59147;SDS011;44930;52.878;6.168;2022-08-27T12:45:42;7.55;;;1.20;;
59147;SDS011;44930;52.878;6.168;2022-08-27T12:48:26;9.00;;;2.08;;
59147;SDS011;44930;52.878;6.168;2022-08-27T12:50:56;4.88;;;1.17;;
59147;SDS011;44930;52.878;6.168;2022-08-27T13:04:47;11.50;;;1.50;;
59147;SDS011;44930;52.878;6.168;2022-08-27T13:07:29;3.60;;;0.77;;
59147;SDS011;44930;52.878;6.168;2022-08-27T13:10:07;6.35;;;1.25;;
59147;SDS011;44930;52.878;6.168;2022-08-27T13:12:34;4.13;;;0.95;;
59147;SDS011;44930;52.878;6.168;2022-08-27T13:15:06;7.32;;;1.20;;
59147;SDS011;44930;52.878;6.168;2022-08-27T13:17:38;8.27;;;1.73;;
59147;SDS011;44930;52.878;6.168;2022-08-27T13:20:19;6.40;;;1.20;;
59147;SDS011;44930;52.878;6.168;2022-08-27T13:22:47;6.65;;;1.20;;
59147;SDS011;44930;52.878;6.168;2022-08-27T13:25:20;8.15;;;2.22;;
59147;SDS011;44930;52.878;6.168;2022-08-27T13:27:53;6.47;;;1.35;;
59147;SDS011;44930;52.878;6.168;2022-08-27T13:30:39;5.63;;;1.10;;
59147;SDS011;44930;52.878;6.168;2022-08-27T13:33:10;7.20;;;1.20;;
59147;SDS011;44930;52.878;6.168;2022-08-27T13:35:41;5.57;;;1.20;;
59147;SDS011;44930;52.878;6.168;2022-08-27T13:38:08;8.88;;;1.00;;
59147;SDS011;44930;52.878;6.168;2022-08-27T13:40:36;4.70;;;1.15;;
59147;SDS011;44930;52.878;6.168;2022-08-27T13:43:15;8.52;;;1.10;;
59147;SDS011;44930;52.878;6.168;2022-08-27T13:45:41;4.30;;;0.75;;
59147;SDS011;44930;52.878;6.168;2022-08-27T13:48:13;4.70;;;0.80;;
59147;SDS011;44930;52.878;6.168;2022-08-27T13:50:50;4.50;;;0.82;;
59147;SDS011;44930;52.878;6.168;2022-08-27T13:53:19;4.90;;;0.80;;
59147;SDS011;44930;52.878;6.168;2022-08-27T13:59:05;9.85;;;1.85;;
59147;SDS011;44930;52.878;6.168;2022-08-27T14:01:36;6.28;;;1.10;;
59147;SDS011;44930;52.878;6.168;2022-08-27T14:04:05;5.38;;;1.10;;
59147;SDS011;44930;52.878;6.168;2022-08-27T14:06:38;7.15;;;1.35;;
59147;SDS011;44930;52.878;6.168;2022-08-27T14:09:07;4.22;;;1.08;;
59147;SDS011;44930;52.878;6.168;2022-08-27T14:12:06;7.00;;;1.02;;
59147;SDS011;44930;52.878;6.168;2022-08-27T14:14:35;6.38;;;1.38;;
59147;SDS011;44930;52.878;6.168;2022-08-27T14:17:02;2.85;;;0.93;;
59147;SDS011;44930;52.878;6.168;2022-08-27T14:19:32;6.93;;;1.40;;
59147;SDS011;44930;52.878;6.168;2022-08-27T14:21:59;5.05;;;1.10;;
59147;SDS011;44930;52.878;6.168;2022-08-27T14:24:25;6.05;;;1.08;;
59147;SDS011;44930;52.878;6.168;2022-08-27T14:26:52;3.53;;;1.02;;
59147;SDS011;44930;52.878;6.168;2022-08-27T14:29:25;6.63;;;1.40;;
59147;SDS011;44930;52.878;6.168;2022-08-27T14:31:51;9.68;;;2.17;;
59147;SDS011;44930;52.878;6.168;2022-08-27T14:34:17;7.22;;;1.33;;
59147;SDS011;44930;52.878;6.168;2022-08-27T14:36:43;5.25;;;1.80;;
59147;SDS011;44930;52.878;6.168;2022-08-27T14:39:09;3.80;;;1.27;;
59147;SDS011;44930;52.878;6.168;2022-08-27T14:41:35;8.40;;;1.70;;
59147;SDS011;44930;52.878;6.168;2022-08-27T14:44:01;6.78;;;1.48;;
59147;SDS011;44930;52.878;6.168;2022-08-27T14:46:28;8.32;;;2.03;;
59147;SDS011;44930;52.878;6.168;2022-08-27T14:48:55;5.07;;;1.58;;
59147;SDS011;44930;52.878;6.168;2022-08-27T14:51:24;5.85;;;1.65;;
59147;SDS011;44930;52.878;6.168;2022-08-27T14:53:52;5.63;;;1.50;;
59147;SDS011;44930;52.878;6.168;2022-08-27T14:56:20;6.97;;;1.60;;
59147;SDS011;44930;52.878;6.168;2022-08-27T14:58:46;6.68;;;2.45;;
59147;SDS011;44930;52.878;6.168;2022-08-27T15:01:12;5.90;;;1.52;;
59147;SDS011;44930;52.878;6.168;2022-08-27T15:03:41;5.10;;;1.30;;
59147;SDS011;44930;52.878;6.168;2022-08-27T15:06:11;4.38;;;1.55;;
59147;SDS011;44930;52.878;6.168;2022-08-27T15:08:37;7.20;;;1.90;;
59147;SDS011;44930;52.878;6.168;2022-08-27T15:11:02;8.80;;;2.10;;
59147;SDS011;44930;52.878;6.168;2022-08-27T15:13:29;6.93;;;1.27;;
59147;SDS011;44930;52.878;6.168;2022-08-27T15:15:55;3.20;;;0.93;;
59147;SDS011;44930;52.878;6.168;2022-08-27T15:18:21;10.25;;;2.10;;
59147;SDS011;44930;52.878;6.168;2022-08-27T15:20:46;5.65;;;2.00;;
59147;SDS011;44930;52.878;6.168;2022-08-27T15:23:12;6.97;;;1.50;;
59147;SDS011;44930;52.878;6.168;2022-08-27T15:25:39;5.32;;;1.38;;
59147;SDS011;44930;52.878;6.168;2022-08-27T15:28:06;7.22;;;1.80;;
59147;SDS011;44930;52.878;6.168;2022-08-27T15:30:32;7.82;;;1.60;;
59147;SDS011;44930;52.878;6.168;2022-08-27T15:32:58;6.03;;;1.30;;
59147;SDS011;44930;52.878;6.168;2022-08-27T15:35:25;3.78;;;1.50;;
59147;SDS011;44930;52.878;6.168;2022-08-27T15:37:52;5.53;;;2.00;;
59147;SDS011;44930;52.878;6.168;2022-08-27T15:40:22;7.32;;;1.50;;
59147;SDS011;44930;52.878;6.168;2022-08-27T15:42:49;5.22;;;1.20;;
59147;SDS011;44930;52.878;6.168;2022-08-27T15:45:20;4.20;;;1.40;;
59147;SDS011;44930;52.878;6.168;2022-08-27T15:47:46;4.95;;;1.63;;
59147;SDS011;44930;52.878;6.168;2022-08-27T15:50:11;6.95;;;1.92;;
59147;SDS011;44930;52.878;6.168;2022-08-27T15:52:37;5.53;;;1.77;;
59147;SDS011;44930;52.878;6.168;2022-08-27T15:55:05;4.03;;;1.63;;
59147;SDS011;44930;52.878;6.168;2022-08-27T15:57:36;6.50;;;1.50;;
59147;SDS011;44930;52.878;6.168;2022-08-27T16:00:02;6.10;;;2.15;;
59147;SDS011;44930;52.878;6.168;2022-08-27T16:02:28;9.13;;;1.90;;
59147;SDS011;44930;52.878;6.168;2022-08-27T16:04:54;6.05;;;1.25;;
59147;SDS011;44930;52.878;6.168;2022-08-27T16:07:38;6.00;;;2.10;;
59147;SDS011;44930;52.878;6.168;2022-08-27T16:10:04;5.05;;;1.73;;
59147;SDS011;44930;52.878;6.168;2022-08-27T16:12:30;4.10;;;1.70;;
59147;SDS011;44930;52.878;6.168;2022-08-27T16:14:56;5.20;;;1.52;;
59147;SDS011;44930;52.878;6.168;2022-08-27T16:17:22;6.22;;;1.77;;
59147;SDS011;44930;52.878;6.168;2022-08-27T16:19:50;6.95;;;1.75;;
59147;SDS011;44930;52.878;6.168;2022-08-27T16:22:16;8.43;;;1.38;;
59147;SDS011;44930;52.878;6.168;2022-08-27T16:24:41;6.38;;;1.83;;
59147;SDS011;44930;52.878;6.168;2022-08-27T16:27:07;12.80;;;2.45;;